AZU4800 SBCJ-SBBE
Flight info
| Callsign | AZU4800 |
|---|---|
| Flight time | 0h 56m |
| Altitude | 35000 |
| Route | IROMU |
| Aircraft | A20N/M-SDE2E3FGHIRWXY/LB1 |
Departure
| Time | 2026-05-09 16:04 |
|---|---|
| Airport | Carajás Airport (SBCJ) |
Arrival
| Time | 2026-05-09 17:00 |
|---|---|
| Airport | Val de Cans/Júlio Cezar Ribeiro International Airport (SBBE) |
| Time | Latitude | Longitude | Altitude | Speed | Heading |
|---|---|---|---|---|---|
| 2026-05-09 15:44 | -6.11515 | -50.00125 | 2029 ft | 0 kts | 31° |
| 2026-05-09 15:55 | -6.11525 | -50.00129 | 2028 ft | 2 kts | 1° |
| 2026-05-09 15:56 | -6.11539 | -50.00126 | 2028 ft | 2 kts | 327° |
| 2026-05-09 15:56 | -6.11549 | -50.00115 | 2028 ft | 2 kts | 291° |
| 2026-05-09 15:56 | -6.11551 | -50.00101 | 2028 ft | 0 kts | 259° |
| 2026-05-09 15:56 | -6.11551 | -50.00100 | 2028 ft | 0 kts | 259° |
| 2026-05-09 15:59 | -6.11551 | -50.00103 | 2028 ft | 1 kts | 259° |
| 2026-05-09 15:59 | -6.11554 | -50.00117 | 2028 ft | 2 kts | 261° |
| 2026-05-09 15:59 | -6.11557 | -50.00141 | 2028 ft | 4 kts | 261° |
| 2026-05-09 16:00 | -6.11563 | -50.00176 | 2028 ft | 6 kts | 251° |
| 2026-05-09 16:00 | -6.11573 | -50.00189 | 2028 ft | 7 kts | 217° |
| 2026-05-09 16:00 | -6.11674 | -50.00188 | 2028 ft | 7 kts | 172° |
| 2026-05-09 16:00 | -6.11734 | -50.00185 | 2027 ft | 9 kts | 212° |
| 2026-05-09 16:01 | -6.11764 | -50.00259 | 2028 ft | 13 kts | 265° |
| 2026-05-09 16:01 | -6.11778 | -50.00368 | 2028 ft | 17 kts | 263° |
| 2026-05-09 16:01 | -6.11795 | -50.00503 | 2028 ft | 21 kts | 264° |
| 2026-05-09 16:01 | -6.11813 | -50.00660 | 2029 ft | 24 kts | 263° |
| 2026-05-09 16:02 | -6.11833 | -50.00826 | 2028 ft | 23 kts | 263° |
| 2026-05-09 16:02 | -6.11872 | -50.01157 | 2026 ft | 22 kts | 263° |
| 2026-05-09 16:02 | -6.11866 | -50.01253 | 2025 ft | 2 kts | 231° |
| 2026-05-09 16:03 | -6.11880 | -50.01227 | 2025 ft | 8 kts | 87° |
| 2026-05-09 16:03 | -6.11844 | -50.00923 | 2028 ft | 79 kts | 84° |
| 2026-05-09 16:03 | -6.11754 | -50.00151 | 2028 ft | 140 kts | 84° |
| 2026-05-09 16:03 | -6.11633 | -49.99060 | 2266 ft | 165 kts | 85° |
| 2026-05-09 16:04 | -6.11510 | -49.97900 | 2789 ft | 168 kts | 85° |
| 2026-05-09 16:04 | -6.11379 | -49.96697 | 3099 ft | 181 kts | 84° |
| 2026-05-09 16:04 | -6.11235 | -49.95400 | 3381 ft | 196 kts | 84° |
| 2026-05-09 16:04 | -6.11076 | -49.93992 | 3674 ft | 212 kts | 84° |
| 2026-05-09 16:05 | -6.10621 | -49.92484 | 3915 ft | 236 kts | 55° |
| 2026-05-09 16:05 | -6.09299 | -49.91460 | 4338 ft | 255 kts | 22° |
| 2026-05-09 16:05 | -6.07488 | -49.91186 | 4865 ft | 270 kts | 6° |
| 2026-05-09 16:05 | -6.05642 | -49.90846 | 5489 ft | 272 kts | 25° |
| 2026-05-09 16:06 | -6.03953 | -49.90022 | 6282 ft | 272 kts | 32° |
| 2026-05-09 16:06 | -6.02304 | -49.89093 | 7062 ft | 274 kts | 33° |
| 2026-05-09 16:06 | -6.00668 | -49.88148 | 7956 ft | 270 kts | 33° |
| 2026-05-09 16:06 | -5.99081 | -49.87234 | 8986 ft | 258 kts | 32° |
| 2026-05-09 16:07 | -5.97571 | -49.86365 | 9880 ft | 251 kts | 32° |
| 2026-05-09 16:07 | -5.96059 | -49.85494 | 10569 ft | 252 kts | 32° |
| 2026-05-09 16:07 | -5.94520 | -49.84610 | 11231 ft | 254 kts | 31° |
| 2026-05-09 16:07 | -5.92979 | -49.83726 | 11871 ft | 257 kts | 31° |
| 2026-05-09 16:08 | -5.91425 | -49.82836 | 12514 ft | 259 kts | 30° |
| 2026-05-09 16:08 | -5.89858 | -49.81941 | 13161 ft | 260 kts | 30° |
| 2026-05-09 16:08 | -5.88278 | -49.81045 | 13783 ft | 263 kts | 30° |
| 2026-05-09 16:08 | -5.86680 | -49.80142 | 14392 ft | 265 kts | 30° |
| 2026-05-09 16:09 | -5.85069 | -49.79229 | 14986 ft | 268 kts | 30° |
| 2026-05-09 16:09 | -5.83444 | -49.78305 | 15569 ft | 270 kts | 30° |
| 2026-05-09 16:09 | -5.81806 | -49.77373 | 16140 ft | 272 kts | 30° |
| 2026-05-09 16:09 | -5.80154 | -49.76432 | 16700 ft | 274 kts | 30° |
| 2026-05-09 16:10 | -5.78490 | -49.75484 | 17265 ft | 276 kts | 30° |
| 2026-05-09 16:10 | -5.76817 | -49.74530 | 17817 ft | 278 kts | 30° |
| 2026-05-09 16:10 | -5.75131 | -49.73571 | 18353 ft | 280 kts | 30° |
| 2026-05-09 16:10 | -5.73434 | -49.72604 | 18874 ft | 282 kts | 30° |
| 2026-05-09 16:11 | -5.71722 | -49.71628 | 19374 ft | 284 kts | 31° |
| 2026-05-09 16:11 | -5.69994 | -49.70643 | 19855 ft | 287 kts | 31° |
| 2026-05-09 16:11 | -5.68249 | -49.69647 | 20325 ft | 290 kts | 31° |
| 2026-05-09 16:11 | -5.66489 | -49.68642 | 20795 ft | 292 kts | 32° |
| 2026-05-09 16:12 | -5.64712 | -49.67629 | 21246 ft | 295 kts | 32° |
| 2026-05-09 16:12 | -5.62921 | -49.66606 | 21686 ft | 297 kts | 32° |
| 2026-05-09 16:12 | -5.61115 | -49.65575 | 22128 ft | 300 kts | 32° |
| 2026-05-09 16:12 | -5.59297 | -49.64537 | 22573 ft | 302 kts | 32° |
| 2026-05-09 16:13 | -5.57460 | -49.63486 | 22977 ft | 306 kts | 32° |
| 2026-05-09 16:13 | -5.55601 | -49.62423 | 23380 ft | 309 kts | 32° |
| 2026-05-09 16:13 | -5.53723 | -49.61350 | 23790 ft | 312 kts | 31° |
| 2026-05-09 16:13 | -5.51823 | -49.60264 | 24169 ft | 316 kts | 31° |
| 2026-05-09 16:14 | -5.49902 | -49.59170 | 24564 ft | 319 kts | 31° |
| 2026-05-09 16:14 | -5.47962 | -49.58064 | 24943 ft | 322 kts | 31° |
| 2026-05-09 16:14 | -5.46001 | -49.56945 | 25307 ft | 326 kts | 31° |
| 2026-05-09 16:14 | -5.44018 | -49.55815 | 25663 ft | 329 kts | 30° |
| 2026-05-09 16:15 | -5.42013 | -49.54673 | 26022 ft | 333 kts | 31° |
| 2026-05-09 16:15 | -5.39992 | -49.53521 | 26394 ft | 335 kts | 30° |
| 2026-05-09 16:15 | -5.37955 | -49.52359 | 26753 ft | 338 kts | 30° |
| 2026-05-09 16:15 | -5.35899 | -49.51187 | 27097 ft | 341 kts | 30° |
| 2026-05-09 16:16 | -5.33824 | -49.50005 | 27425 ft | 345 kts | 30° |
| 2026-05-09 16:16 | -5.31728 | -49.48811 | 27753 ft | 348 kts | 30° |
| 2026-05-09 16:16 | -5.29613 | -49.47606 | 28081 ft | 351 kts | 30° |
| 2026-05-09 16:16 | -5.27480 | -49.46390 | 28415 ft | 354 kts | 29° |
| 2026-05-09 16:17 | -5.25331 | -49.45167 | 28748 ft | 356 kts | 29° |
| 2026-05-09 16:17 | -5.23164 | -49.43932 | 29082 ft | 359 kts | 29° |
| 2026-05-09 16:17 | -5.20981 | -49.42689 | 29430 ft | 362 kts | 29° |
| 2026-05-09 16:17 | -5.18782 | -49.41438 | 29745 ft | 365 kts | 29° |
| 2026-05-09 16:18 | -5.16562 | -49.40174 | 30050 ft | 368 kts | 29° |
| 2026-05-09 16:18 | -5.14326 | -49.38900 | 30380 ft | 371 kts | 29° |
| 2026-05-09 16:18 | -5.12074 | -49.37618 | 30706 ft | 373 kts | 29° |
| 2026-05-09 16:18 | -5.09807 | -49.36327 | 31022 ft | 376 kts | 28° |
| 2026-05-09 16:19 | -5.07526 | -49.35029 | 31343 ft | 378 kts | 28° |
| 2026-05-09 16:19 | -5.05235 | -49.33716 | 31653 ft | 380 kts | 29° |
| 2026-05-09 16:19 | -5.02933 | -49.32391 | 31958 ft | 382 kts | 28° |
| 2026-05-09 16:19 | -5.00618 | -49.31060 | 32260 ft | 384 kts | 28° |
| 2026-05-09 16:20 | -4.98287 | -49.29727 | 32546 ft | 386 kts | 28° |
| 2026-05-09 16:20 | -4.95941 | -49.28388 | 32829 ft | 389 kts | 28° |
| 2026-05-09 16:20 | -4.93577 | -49.27041 | 33096 ft | 392 kts | 28° |
| 2026-05-09 16:20 | -4.91193 | -49.25685 | 33347 ft | 395 kts | 28° |
| 2026-05-09 16:21 | -4.88790 | -49.24319 | 33592 ft | 398 kts | 28° |
| 2026-05-09 16:21 | -4.86367 | -49.22947 | 33835 ft | 401 kts | 28° |
| 2026-05-09 16:21 | -4.83926 | -49.21565 | 34072 ft | 404 kts | 28° |
| 2026-05-09 16:21 | -4.81471 | -49.20173 | 34316 ft | 406 kts | 28° |
| 2026-05-09 16:22 | -4.79002 | -49.18773 | 34553 ft | 409 kts | 28° |
| 2026-05-09 16:22 | -4.76520 | -49.17362 | 34784 ft | 411 kts | 28° |
| 2026-05-09 16:22 | -4.74021 | -49.15941 | 34931 ft | 415 kts | 28° |
| 2026-05-09 16:22 | -4.71483 | -49.14499 | 34939 ft | 422 kts | 28° |
| 2026-05-09 16:23 | -4.66281 | -49.11543 | 34943 ft | 436 kts | 28° |
| 2026-05-09 16:23 | -4.60920 | -49.08497 | 34934 ft | 448 kts | 28° |
| 2026-05-09 16:24 | -4.55485 | -49.05407 | 34926 ft | 450 kts | 28° |
| 2026-05-09 16:24 | -4.50040 | -49.02311 | 34916 ft | 450 kts | 28° |
| 2026-05-09 16:25 | -4.44593 | -48.99216 | 34916 ft | 449 kts | 28° |
| 2026-05-09 16:25 | -4.39147 | -48.96122 | 34917 ft | 450 kts | 28° |
| 2026-05-09 16:26 | -4.33699 | -48.93028 | 34916 ft | 450 kts | 28° |
| 2026-05-09 16:26 | -4.28246 | -48.89932 | 34914 ft | 450 kts | 28° |
| 2026-05-09 16:27 | -4.22795 | -48.86837 | 34910 ft | 450 kts | 28° |
| 2026-05-09 16:27 | -4.17343 | -48.83742 | 34908 ft | 450 kts | 28° |
| 2026-05-09 16:28 | -4.11888 | -48.80646 | 34911 ft | 450 kts | 28° |
| 2026-05-09 16:28 | -4.06435 | -48.77552 | 34907 ft | 450 kts | 28° |
| 2026-05-09 16:29 | -4.00978 | -48.74456 | 34911 ft | 451 kts | 28° |
| 2026-05-09 16:29 | -3.95525 | -48.71361 | 34911 ft | 450 kts | 28° |
| 2026-05-09 16:30 | -3.90076 | -48.68271 | 34907 ft | 450 kts | 28° |
| 2026-05-09 16:30 | -3.84621 | -48.65191 | 34908 ft | 450 kts | 28° |
| 2026-05-09 16:31 | -3.79169 | -48.62109 | 34907 ft | 450 kts | 28° |
| 2026-05-09 16:31 | -3.73746 | -48.59038 | 34906 ft | 451 kts | 28° |
| 2026-05-09 16:32 | -3.69196 | -48.56458 | 34909 ft | 450 kts | 28° |
| 2026-05-09 16:32 | -3.62821 | -48.52841 | 34691 ft | 451 kts | 28° |
| 2026-05-09 16:33 | -3.60094 | -48.51295 | 34404 ft | 448 kts | 28° |
| 2026-05-09 16:33 | -3.57387 | -48.49761 | 34118 ft | 445 kts | 28° |
| 2026-05-09 16:33 | -3.54646 | -48.48347 | 33826 ft | 441 kts | 23° |
| 2026-05-09 16:33 | -3.51804 | -48.47214 | 33538 ft | 438 kts | 18° |
| 2026-05-09 16:34 | -3.48877 | -48.46370 | 33253 ft | 436 kts | 12° |
| 2026-05-09 16:34 | -3.45890 | -48.45818 | 32963 ft | 435 kts | 6° |
| 2026-05-09 16:34 | -3.42869 | -48.45558 | 32601 ft | 435 kts | 1° |
| 2026-05-09 16:34 | -3.39840 | -48.45589 | 32175 ft | 435 kts | 356° |
| 2026-05-09 16:35 | -3.36812 | -48.45760 | 31611 ft | 436 kts | 356° |
| 2026-05-09 16:35 | -3.33784 | -48.45953 | 31027 ft | 436 kts | 355° |
| 2026-05-09 16:35 | -3.30754 | -48.46148 | 30420 ft | 436 kts | 356° |
| 2026-05-09 16:35 | -3.27724 | -48.46339 | 29777 ft | 436 kts | 356° |
| 2026-05-09 16:36 | -3.24692 | -48.46525 | 29135 ft | 436 kts | 356° |
| 2026-05-09 16:36 | -3.15631 | -48.47066 | 27546 ft | 428 kts | 357° |
| 2026-05-09 16:37 | -3.12674 | -48.47242 | 27146 ft | 422 kts | 358° |
| 2026-05-09 16:37 | -3.09753 | -48.47414 | 26717 ft | 418 kts | 358° |
| 2026-05-09 16:37 | -3.06859 | -48.47583 | 26268 ft | 414 kts | 358° |
| 2026-05-09 16:37 | -3.03988 | -48.47753 | 25807 ft | 411 kts | 358° |
| 2026-05-09 16:38 | -3.01139 | -48.47921 | 25359 ft | 408 kts | 358° |
| 2026-05-09 16:38 | -2.98312 | -48.48089 | 24913 ft | 405 kts | 358° |
| 2026-05-09 16:38 | -2.95505 | -48.48253 | 24458 ft | 402 kts | 358° |
| 2026-05-09 16:38 | -2.92698 | -48.48419 | 24009 ft | 399 kts | 359° |
| 2026-05-09 16:39 | -2.89939 | -48.48582 | 23564 ft | 397 kts | 359° |
| 2026-05-09 16:39 | -2.87174 | -48.48744 | 23127 ft | 394 kts | 359° |
| 2026-05-09 16:39 | -2.84427 | -48.48906 | 22694 ft | 391 kts | 359° |
| 2026-05-09 16:39 | -2.81721 | -48.49065 | 22284 ft | 388 kts | 359° |
| 2026-05-09 16:40 | -2.79025 | -48.49223 | 21873 ft | 385 kts | 359° |
| 2026-05-09 16:40 | -2.76343 | -48.49381 | 21465 ft | 382 kts | 359° |
| 2026-05-09 16:42 | -2.57663 | -48.50481 | 18455 ft | 366 kts | 359° |
| 2026-05-09 16:42 | -2.55129 | -48.50631 | 18026 ft | 364 kts | 359° |
| 2026-05-09 16:42 | -2.52607 | -48.50781 | 17875 ft | 351 kts | 359° |
| 2026-05-09 16:42 | -2.50212 | -48.50925 | 17802 ft | 336 kts | 359° |
| 2026-05-09 16:43 | -2.47924 | -48.51061 | 17726 ft | 323 kts | 359° |
| 2026-05-09 16:43 | -2.45737 | -48.51191 | 17658 ft | 310 kts | 359° |
| 2026-05-09 16:43 | -2.43609 | -48.51317 | 17469 ft | 303 kts | 359° |
| 2026-05-09 16:43 | -2.41484 | -48.51441 | 17114 ft | 302 kts | 359° |
| 2026-05-09 16:44 | -2.39389 | -48.51564 | 16768 ft | 300 kts | 359° |
| 2026-05-09 16:44 | -2.37324 | -48.51684 | 16411 ft | 300 kts | 359° |
| 2026-05-09 16:44 | -2.35223 | -48.51808 | 16068 ft | 298 kts | 359° |
| 2026-05-09 16:44 | -2.33167 | -48.51930 | 15735 ft | 296 kts | 359° |
| 2026-05-09 16:45 | -2.31110 | -48.52051 | 15389 ft | 295 kts | 360° |
| 2026-05-09 16:45 | -2.29045 | -48.52173 | 15042 ft | 294 kts | 360° |
| 2026-05-09 16:45 | -2.27020 | -48.52292 | 14704 ft | 293 kts | 360° |
| 2026-05-09 16:45 | -2.24971 | -48.52413 | 14359 ft | 292 kts | 360° |
| 2026-05-09 16:46 | -2.22931 | -48.52534 | 14022 ft | 290 kts | 360° |
| 2026-05-09 16:46 | -2.20912 | -48.52653 | 13681 ft | 290 kts | 360° |
| 2026-05-09 16:46 | -2.18913 | -48.52771 | 13353 ft | 289 kts | 360° |
| 2026-05-09 16:46 | -2.16886 | -48.52890 | 13003 ft | 288 kts | 360° |
| 2026-05-09 16:47 | -2.14907 | -48.53007 | 12672 ft | 287 kts | 0° |
| 2026-05-09 16:47 | -2.12914 | -48.53125 | 12348 ft | 285 kts | 0° |
| 2026-05-09 16:47 | -2.10926 | -48.53242 | 12022 ft | 284 kts | 0° |
| 2026-05-09 16:47 | -2.08946 | -48.53359 | 11703 ft | 283 kts | 0° |
| 2026-05-09 16:48 | -2.06972 | -48.53476 | 11382 ft | 282 kts | 0° |
| 2026-05-09 16:48 | -2.05029 | -48.53590 | 11072 ft | 280 kts | 0° |
| 2026-05-09 16:48 | -2.03070 | -48.53705 | 10757 ft | 279 kts | 0° |
| 2026-05-09 16:48 | -2.01134 | -48.53820 | 10442 ft | 278 kts | 0° |
| 2026-05-09 16:49 | -1.99203 | -48.53933 | 10130 ft | 276 kts | 0° |
| 2026-05-09 16:49 | -1.97267 | -48.54048 | 9813 ft | 275 kts | 0° |
| 2026-05-09 16:49 | -1.95362 | -48.54160 | 9507 ft | 274 kts | 0° |
| 2026-05-09 16:50 | -1.91566 | -48.54384 | 8883 ft | 272 kts | 0° |
| 2026-05-09 16:50 | -1.89663 | -48.54494 | 8571 ft | 271 kts | 0° |
| 2026-05-09 16:50 | -1.87789 | -48.54606 | 8264 ft | 270 kts | 0° |
| 2026-05-09 16:50 | -1.85897 | -48.54718 | 7961 ft | 269 kts | 0° |
| 2026-05-09 16:51 | -1.84026 | -48.54828 | 7653 ft | 269 kts | 0° |
| 2026-05-09 16:51 | -1.82160 | -48.54938 | 7348 ft | 268 kts | 0° |
| 2026-05-09 16:51 | -1.80284 | -48.55049 | 7043 ft | 267 kts | 0° |
| 2026-05-09 16:51 | -1.78427 | -48.55157 | 6741 ft | 266 kts | 0° |
| 2026-05-09 16:52 | -1.76594 | -48.55265 | 6442 ft | 265 kts | 0° |
| 2026-05-09 16:52 | -1.74743 | -48.55374 | 6145 ft | 264 kts | 0° |
| 2026-05-09 16:52 | -1.72903 | -48.55484 | 5846 ft | 263 kts | 0° |
| 2026-05-09 16:52 | -1.71083 | -48.55590 | 5562 ft | 261 kts | 0° |
| 2026-05-09 16:53 | -1.69265 | -48.55698 | 5278 ft | 259 kts | 0° |
| 2026-05-09 16:53 | -1.67464 | -48.55805 | 4999 ft | 256 kts | 0° |
| 2026-05-09 16:53 | -1.65686 | -48.55909 | 4721 ft | 254 kts | 360° |
| 2026-05-09 16:53 | -1.63949 | -48.56013 | 4495 ft | 248 kts | 0° |
| 2026-05-09 16:54 | -1.62249 | -48.56115 | 4450 ft | 236 kts | 0° |
| 2026-05-09 16:54 | -1.60608 | -48.56220 | 4447 ft | 238 kts | 356° |
| 2026-05-09 16:54 | -1.58961 | -48.56576 | 4446 ft | 241 kts | 343° |
| 2026-05-09 16:54 | -1.57423 | -48.57211 | 4429 ft | 237 kts | 338° |
| 2026-05-09 16:55 | -1.55936 | -48.57900 | 4233 ft | 232 kts | 338° |
| 2026-05-09 16:55 | -1.54478 | -48.58583 | 4001 ft | 228 kts | 338° |
| 2026-05-09 16:55 | -1.53047 | -48.59246 | 3763 ft | 224 kts | 338° |
| 2026-05-09 16:55 | -1.51636 | -48.59875 | 3578 ft | 215 kts | 343° |
| 2026-05-09 16:56 | -1.50239 | -48.59952 | 3387 ft | 195 kts | 22° |
| 2026-05-09 16:56 | -1.49170 | -48.59221 | 3117 ft | 183 kts | 49° |
| 2026-05-09 16:56 | -1.48310 | -48.58299 | 2806 ft | 181 kts | 50° |
| 2026-05-09 16:56 | -1.47451 | -48.57379 | 2509 ft | 179 kts | 50° |
| 2026-05-09 16:57 | -1.46584 | -48.56470 | 2319 ft | 179 kts | 49° |
| 2026-05-09 16:57 | -1.45742 | -48.55600 | 1999 ft | 170 kts | 49° |
| 2026-05-09 16:57 | -1.44952 | -48.54796 | 1755 ft | 155 kts | 49° |
| 2026-05-09 16:57 | -1.44223 | -48.54053 | 1515 ft | 142 kts | 48° |
| 2026-05-09 16:58 | -1.43538 | -48.53355 | 1343 ft | 140 kts | 49° |
| 2026-05-09 16:58 | -1.42855 | -48.52660 | 1160 ft | 140 kts | 48° |
| 2026-05-09 16:58 | -1.42176 | -48.51969 | 982 ft | 140 kts | 48° |
| 2026-05-09 16:58 | -1.41491 | -48.51266 | 784 ft | 139 kts | 49° |
| 2026-05-09 16:59 | -1.40841 | -48.50559 | 565 ft | 138 kts | 49° |
| 2026-05-09 16:59 | -1.40179 | -48.49868 | 375 ft | 138 kts | 47° |
| 2026-05-09 16:59 | -1.39492 | -48.49195 | 209 ft | 138 kts | 48° |
| 2026-05-09 16:59 | -1.38815 | -48.48505 | 92 ft | 138 kts | 48° |
| 2026-05-09 17:00 | -1.38198 | -48.47878 | 60 ft | 94 kts | 44° |
| 2026-05-09 17:00 | -1.37924 | -48.47610 | 60 ft | 20 kts | 39° |
| 2026-05-09 17:00 | -1.37906 | -48.47583 | 60 ft | 1 kts | 184° |
| 2026-05-09 17:00 | -1.37924 | -48.47590 | 60 ft | 6 kts | 204° |
| 2026-05-09 17:01 | -1.37993 | -48.47616 | 60 ft | 14 kts | 191° |
| 2026-05-09 17:01 | -1.38135 | -48.47630 | 60 ft | 20 kts | 186° |
| 2026-05-09 17:01 | -1.38273 | -48.47645 | 60 ft | 19 kts | 185° |
| 2026-05-09 17:01 | -1.38410 | -48.47655 | 60 ft | 19 kts | 183° |
| 2026-05-09 17:02 | -1.38528 | -48.47664 | 60 ft | 15 kts | 185° |
| 2026-05-09 17:02 | -1.38630 | -48.47671 | 60 ft | 9 kts | 185° |
| 2026-05-09 17:02 | -1.38671 | -48.47720 | 60 ft | 8 kts | 265° |
| 2026-05-09 17:02 | -1.38677 | -48.47780 | 60 ft | 8 kts | 246° |
| 2026-05-09 17:03 | -1.38735 | -48.47792 | 60 ft | 9 kts | 184° |
| 2026-05-09 17:04 | -1.38963 | -48.47879 | 60 ft | 0 kts | 275° |